AAR122 RKSI-RJAA
Flight info
| Callsign | AAR122 |
|---|---|
| Flight time | 1h 19m |
| Altitude | 35000 |
| Route | EGOBA2Y EGOBA Y697 KARBU DCT LANAT Y51 SAMON Y517 ESKAS Y303 ENTAK Y30 SWAMP |
| Aircraft | A359/H-SDE2E3GHIJ3J4J5LM1ORWXY/LB1D1 |
Departure
| Time | 2026-05-04 09:01 |
|---|---|
| Airport | Incheon International Airport (RKSI) |
Arrival
| Time | 2026-05-04 10:20 |
|---|---|
| Airport | Narita International Airport (RJAA) |
| Time | Latitude | Longitude | Altitude | Speed | Heading |
|---|---|---|---|---|---|
| 2026-05-04 08:11 | 37.46823 | 126.42769 | 39 ft | 0 kts | 51° |
| 2026-05-04 08:40 | 37.46821 | 126.42767 | 39 ft | 2 kts | 51° |
| 2026-05-04 08:41 | 37.46805 | 126.42742 | 38 ft | 4 kts | 52° |
| 2026-05-04 08:41 | 37.46792 | 126.42720 | 38 ft | 4 kts | 72° |
| 2026-05-04 08:41 | 37.46789 | 126.42695 | 37 ft | 4 kts | 110° |
| 2026-05-04 08:41 | 37.46801 | 126.42668 | 36 ft | 4 kts | 132° |
| 2026-05-04 08:42 | 37.46817 | 126.42648 | 36 ft | 1 kts | 137° |
| 2026-05-04 08:42 | 37.46820 | 126.42645 | 35 ft | 0 kts | 137° |
| 2026-05-04 08:47 | 37.46813 | 126.42654 | 37 ft | 5 kts | 137° |
| 2026-05-04 08:47 | 37.46769 | 126.42703 | 39 ft | 11 kts | 137° |
| 2026-05-04 08:47 | 37.46706 | 126.42770 | 39 ft | 13 kts | 143° |
| 2026-05-04 08:47 | 37.46628 | 126.42843 | 39 ft | 15 kts | 144° |
| 2026-05-04 08:48 | 37.46538 | 126.42925 | 39 ft | 17 kts | 144° |
| 2026-05-04 08:48 | 37.46436 | 126.42940 | 38 ft | 15 kts | 226° |
| 2026-05-04 08:48 | 37.46370 | 126.42831 | 39 ft | 15 kts | 221° |
| 2026-05-04 08:48 | 37.46284 | 126.42864 | 39 ft | 15 kts | 146° |
| 2026-05-04 08:49 | 37.46196 | 126.42941 | 39 ft | 16 kts | 143° |
| 2026-05-04 08:50 | 37.45589 | 126.43483 | 39 ft | 18 kts | 145° |
| 2026-05-04 08:50 | 37.45483 | 126.43577 | 39 ft | 16 kts | 144° |
| 2026-05-04 08:51 | 37.45384 | 126.43665 | 39 ft | 18 kts | 144° |
| 2026-05-04 08:51 | 37.45276 | 126.43761 | 39 ft | 20 kts | 145° |
| 2026-05-04 08:51 | 37.45167 | 126.43858 | 39 ft | 17 kts | 144° |
| 2026-05-04 08:51 | 37.45073 | 126.43942 | 39 ft | 16 kts | 144° |
| 2026-05-04 08:52 | 37.44978 | 126.44027 | 39 ft | 18 kts | 144° |
| 2026-05-04 08:52 | 37.44875 | 126.44120 | 39 ft | 19 kts | 144° |
| 2026-05-04 08:52 | 37.44761 | 126.44221 | 39 ft | 20 kts | 145° |
| 2026-05-04 08:52 | 37.44658 | 126.44311 | 39 ft | 19 kts | 145° |
| 2026-05-04 08:53 | 37.44546 | 126.44411 | 39 ft | 20 kts | 147° |
| 2026-05-04 08:54 | 37.44392 | 126.44129 | 39 ft | 0 kts | 326° |
| 2026-05-04 09:01 | 37.50580 | 126.29782 | 5049 ft | 254 kts | 274° |
| 2026-05-04 09:01 | 37.50620 | 126.27543 | 5816 ft | 258 kts | 275° |
| 2026-05-04 09:01 | 37.50667 | 126.25257 | 6605 ft | 261 kts | 275° |
| 2026-05-04 09:01 | 37.50735 | 126.22980 | 7394 ft | 264 kts | 278° |
| 2026-05-04 09:02 | 37.51131 | 126.20736 | 8203 ft | 263 kts | 294° |
| 2026-05-04 09:02 | 37.52096 | 126.18799 | 9033 ft | 263 kts | 315° |
| 2026-05-04 09:02 | 37.53614 | 126.17531 | 9860 ft | 266 kts | 340° |
| 2026-05-04 09:02 | 37.55483 | 126.17229 | 10427 ft | 281 kts | 4° |
| 2026-05-04 09:03 | 37.57388 | 126.18116 | 10709 ft | 310 kts | 32° |
| 2026-05-04 09:03 | 37.58874 | 126.20229 | 10994 ft | 339 kts | 59° |
| 2026-05-04 09:03 | 37.59556 | 126.23173 | 11291 ft | 365 kts | 83° |
| 2026-05-04 09:03 | 37.59236 | 126.26358 | 11823 ft | 380 kts | 107° |
| 2026-05-04 09:04 | 37.57998 | 126.29325 | 12523 ft | 387 kts | 122° |
| 2026-05-04 09:04 | 37.56475 | 126.32159 | 13219 ft | 392 kts | 122° |
| 2026-05-04 09:04 | 37.54976 | 126.35039 | 13900 ft | 396 kts | 121° |
| 2026-05-04 09:04 | 37.53507 | 126.38006 | 14512 ft | 400 kts | 119° |
| 2026-05-04 09:05 | 37.52084 | 126.41037 | 15154 ft | 403 kts | 118° |
| 2026-05-04 09:05 | 37.50707 | 126.44140 | 15785 ft | 407 kts | 116° |
| 2026-05-04 09:05 | 37.49384 | 126.47310 | 16433 ft | 410 kts | 115° |
| 2026-05-04 09:05 | 37.48117 | 126.50548 | 17061 ft | 414 kts | 113° |
| 2026-05-04 09:06 | 37.46909 | 126.53856 | 17693 ft | 418 kts | 111° |
| 2026-05-04 09:07 | 37.40678 | 126.78892 | 21782 ft | 441 kts | 97° |
| 2026-05-04 09:08 | 37.40181 | 126.82704 | 22361 ft | 444 kts | 95° |
| 2026-05-04 09:08 | 37.39799 | 126.86583 | 22931 ft | 447 kts | 93° |
| 2026-05-04 09:08 | 37.39545 | 126.90491 | 23506 ft | 450 kts | 90° |
| 2026-05-04 09:08 | 37.39424 | 126.94450 | 23981 ft | 454 kts | 88° |
| 2026-05-04 09:09 | 37.39449 | 126.98440 | 24373 ft | 459 kts | 85° |
| 2026-05-04 09:09 | 37.39774 | 127.02442 | 24769 ft | 461 kts | 76° |
| 2026-05-04 09:09 | 37.40559 | 127.06355 | 25187 ft | 463 kts | 70° |
| 2026-05-04 09:09 | 37.41513 | 127.10195 | 25602 ft | 468 kts | 69° |
| 2026-05-04 09:10 | 37.42523 | 127.14107 | 26028 ft | 473 kts | 68° |
| 2026-05-04 09:10 | 37.43557 | 127.18067 | 26440 ft | 478 kts | 68° |
| 2026-05-04 09:10 | 37.44601 | 127.22058 | 26835 ft | 483 kts | 68° |
| 2026-05-04 09:10 | 37.45657 | 127.26094 | 27268 ft | 488 kts | 68° |
| 2026-05-04 09:11 | 37.46723 | 127.30171 | 27669 ft | 492 kts | 68° |
| 2026-05-04 09:11 | 37.47796 | 127.34280 | 28074 ft | 497 kts | 68° |
| 2026-05-04 09:11 | 37.48800 | 127.38480 | 28419 ft | 504 kts | 73° |
| 2026-05-04 09:11 | 37.49611 | 127.42798 | 28809 ft | 510 kts | 75° |
| 2026-05-04 09:12 | 37.50343 | 127.47186 | 29182 ft | 514 kts | 76° |
| 2026-05-04 09:12 | 37.50805 | 127.50122 | 29414 ft | 518 kts | 76° |
| 2026-05-04 09:14 | 37.48947 | 127.82061 | 31456 ft | 546 kts | 111° |
| 2026-05-04 09:14 | 37.47612 | 127.86547 | 31764 ft | 548 kts | 112° |
| 2026-05-04 09:14 | 37.46715 | 127.89537 | 32017 ft | 548 kts | 112° |
| 2026-05-04 09:14 | 37.45369 | 127.94035 | 32403 ft | 548 kts | 112° |
| 2026-05-04 09:15 | 37.44035 | 127.98524 | 32753 ft | 548 kts | 112° |
| 2026-05-04 09:15 | 37.42707 | 128.03029 | 33104 ft | 549 kts | 112° |
| 2026-05-04 09:15 | 37.41383 | 128.07542 | 33449 ft | 550 kts | 113° |
| 2026-05-04 09:15 | 37.40063 | 128.12049 | 33785 ft | 550 kts | 113° |
| 2026-05-04 09:17 | 37.29398 | 128.48268 | 34950 ft | 556 kts | 114° |
| 2026-05-04 09:18 | 37.26687 | 128.57395 | 34948 ft | 558 kts | 114° |
| 2026-05-04 09:18 | 37.23968 | 128.66523 | 34952 ft | 559 kts | 114° |
| 2026-05-04 09:19 | 37.21229 | 128.75684 | 34952 ft | 560 kts | 114° |
| 2026-05-04 09:19 | 37.18500 | 128.84782 | 34956 ft | 561 kts | 115° |
| 2026-05-04 09:20 | 37.15738 | 128.93950 | 34952 ft | 562 kts | 115° |
| 2026-05-04 09:20 | 37.12956 | 129.03141 | 34960 ft | 563 kts | 115° |
| 2026-05-04 09:21 | 37.10176 | 129.12321 | 34964 ft | 564 kts | 115° |
| 2026-05-04 09:21 | 37.07383 | 129.21511 | 34973 ft | 565 kts | 116° |
| 2026-05-04 09:22 | 37.04577 | 129.30722 | 34977 ft | 566 kts | 116° |
| 2026-05-04 09:22 | 37.01760 | 129.39934 | 34981 ft | 567 kts | 116° |
| 2026-05-04 09:23 | 36.98929 | 129.49160 | 34984 ft | 568 kts | 116° |
| 2026-05-04 09:23 | 36.96102 | 129.58340 | 34991 ft | 569 kts | 117° |
| 2026-05-04 09:25 | 36.78029 | 130.16330 | 35011 ft | 574 kts | 118° |
| 2026-05-04 09:26 | 36.66295 | 130.53368 | 35013 ft | 580 kts | 119° |
| 2026-05-04 09:26 | 36.54264 | 130.90859 | 35019 ft | 584 kts | 120° |
| 2026-05-04 09:27 | 36.42069 | 131.28375 | 35018 ft | 586 kts | 121° |
| 2026-05-04 09:27 | 36.37211 | 131.47816 | 35029 ft | 609 kts | 101° |
| 2026-05-04 09:27 | 36.36451 | 131.68998 | 35025 ft | 614 kts | 96° |
| 2026-05-04 09:28 | 36.35128 | 132.11004 | 35024 ft | 612 kts | 98° |
| 2026-05-04 09:28 | 36.33564 | 132.53274 | 35023 ft | 612 kts | 98° |
| 2026-05-04 09:29 | 36.31860 | 132.95356 | 35020 ft | 611 kts | 99° |
| 2026-05-04 09:29 | 36.30012 | 133.37353 | 35015 ft | 609 kts | 100° |
| 2026-05-04 09:30 | 36.28030 | 133.79141 | 35009 ft | 606 kts | 101° |
| 2026-05-04 09:30 | 36.25905 | 134.20785 | 35004 ft | 604 kts | 102° |
| 2026-05-04 09:31 | 36.26254 | 134.62636 | 34998 ft | 624 kts | 84° |
| 2026-05-04 09:31 | 36.33369 | 135.04559 | 34990 ft | 626 kts | 84° |
| 2026-05-04 09:32 | 36.40284 | 135.47143 | 34975 ft | 628 kts | 84° |
| 2026-05-04 09:34 | 36.66313 | 137.17518 | 34937 ft | 625 kts | 86° |
| 2026-05-04 09:34 | 36.72317 | 137.60208 | 34888 ft | 622 kts | 86° |
| 2026-05-04 09:35 | 36.78124 | 138.02576 | 34815 ft | 617 kts | 87° |
| 2026-05-04 09:35 | 36.83886 | 138.44776 | 34807 ft | 616 kts | 87° |
| 2026-05-04 09:37 | 37.02859 | 139.92370 | 34703 ft | 617 kts | 88° |
| 2026-05-04 09:37 | 37.05485 | 140.13621 | 34670 ft | 615 kts | 88° |
| 2026-05-04 09:38 | 37.10016 | 140.51490 | 34666 ft | 609 kts | 89° |
| 2026-05-04 09:38 | 37.10254 | 140.56660 | 34675 ft | 591 kts | 103° |
| 2026-05-04 09:38 | 37.09623 | 140.61618 | 34668 ft | 564 kts | 118° |
| 2026-05-04 09:39 | 37.08199 | 140.66048 | 34672 ft | 534 kts | 133° |
| 2026-05-04 09:39 | 37.06197 | 140.69844 | 34630 ft | 512 kts | 142° |
| 2026-05-04 09:39 | 37.03942 | 140.73213 | 34380 ft | 493 kts | 152° |
| 2026-05-04 09:39 | 37.01304 | 140.75721 | 34153 ft | 459 kts | 166° |
| 2026-05-04 09:40 | 36.98440 | 140.77142 | 33913 ft | 428 kts | 180° |
| 2026-05-04 09:40 | 36.95579 | 140.77538 | 33677 ft | 404 kts | 193° |
| 2026-05-04 09:40 | 36.92849 | 140.77046 | 33424 ft | 389 kts | 203° |
| 2026-05-04 09:40 | 36.90272 | 140.76166 | 33152 ft | 388 kts | 205° |
| 2026-05-04 09:41 | 36.87684 | 140.75168 | 32874 ft | 389 kts | 206° |
| 2026-05-04 09:42 | 36.69385 | 140.67986 | 31089 ft | 399 kts | 205° |
| 2026-05-04 09:43 | 36.66725 | 140.66973 | 30847 ft | 400 kts | 205° |
| 2026-05-04 09:43 | 36.64103 | 140.65974 | 30503 ft | 397 kts | 205° |
| 2026-05-04 09:43 | 36.61481 | 140.64981 | 29958 ft | 391 kts | 206° |
| 2026-05-04 09:43 | 36.58882 | 140.63996 | 29269 ft | 389 kts | 206° |
| 2026-05-04 09:44 | 36.56297 | 140.63015 | 28601 ft | 386 kts | 206° |
| 2026-05-04 09:44 | 36.53735 | 140.62045 | 27939 ft | 383 kts | 206° |
| 2026-05-04 09:44 | 36.51199 | 140.61079 | 27320 ft | 380 kts | 206° |
| 2026-05-04 09:46 | 36.33585 | 140.55568 | 22894 ft | 398 kts | 187° |
| 2026-05-04 09:46 | 36.30816 | 140.56382 | 22151 ft | 422 kts | 172° |
| 2026-05-04 09:46 | 36.28162 | 140.58183 | 21408 ft | 450 kts | 156° |
| 2026-05-04 09:47 | 36.25855 | 140.60975 | 20631 ft | 478 kts | 140° |
| 2026-05-04 09:47 | 36.23828 | 140.64250 | 19836 ft | 477 kts | 141° |
| 2026-05-04 09:49 | 36.07996 | 140.81735 | 15683 ft | 388 kts | 173° |
| 2026-05-04 09:49 | 36.05468 | 140.82832 | 15168 ft | 382 kts | 173° |
| 2026-05-04 09:49 | 36.02969 | 140.83914 | 14638 ft | 378 kts | 173° |
| 2026-05-04 09:51 | 35.88523 | 140.90250 | 11784 ft | 346 kts | 170° |
| 2026-05-04 09:51 | 35.86338 | 140.91223 | 11669 ft | 330 kts | 171° |
| 2026-05-04 09:51 | 35.84224 | 140.92163 | 11559 ft | 316 kts | 171° |
| 2026-05-04 09:51 | 35.82206 | 140.93062 | 11443 ft | 302 kts | 171° |
| 2026-05-04 09:52 | 35.80264 | 140.93917 | 11315 ft | 290 kts | 172° |
| 2026-05-04 09:52 | 35.78402 | 140.94734 | 11188 ft | 278 kts | 172° |
| 2026-05-04 09:52 | 35.76614 | 140.95518 | 11059 ft | 267 kts | 172° |
| 2026-05-04 09:52 | 35.74895 | 140.96272 | 10946 ft | 257 kts | 173° |
| 2026-05-04 09:53 | 35.73244 | 140.96996 | 10827 ft | 247 kts | 173° |
| 2026-05-04 09:53 | 35.71650 | 140.97694 | 10705 ft | 239 kts | 174° |
| 2026-05-04 09:53 | 35.70106 | 140.98369 | 10573 ft | 233 kts | 174° |
| 2026-05-04 09:53 | 35.68578 | 140.99031 | 10314 ft | 232 kts | 174° |
| 2026-05-04 09:54 | 35.67054 | 140.99690 | 10053 ft | 232 kts | 174° |
| 2026-05-04 09:54 | 35.65531 | 141.00351 | 9787 ft | 233 kts | 174° |
| 2026-05-04 09:54 | 35.63999 | 141.01020 | 9621 ft | 236 kts | 173° |
| 2026-05-04 09:54 | 35.62407 | 141.01700 | 9635 ft | 252 kts | 173° |
| 2026-05-04 09:55 | 35.60735 | 141.02424 | 9619 ft | 256 kts | 173° |
| 2026-05-04 09:55 | 35.59049 | 141.03105 | 9620 ft | 257 kts | 179° |
| 2026-05-04 09:55 | 35.57226 | 141.03380 | 9603 ft | 267 kts | 191° |
| 2026-05-04 09:55 | 35.55441 | 141.03001 | 9596 ft | 254 kts | 211° |
| 2026-05-04 09:56 | 35.54045 | 141.01833 | 9593 ft | 238 kts | 234° |
| 2026-05-04 09:56 | 35.53305 | 141.00073 | 9521 ft | 232 kts | 258° |
| 2026-05-04 09:56 | 35.53357 | 140.98087 | 9314 ft | 238 kts | 278° |
| 2026-05-04 09:56 | 35.53748 | 140.96106 | 9050 ft | 240 kts | 278° |
| 2026-05-04 09:57 | 35.54080 | 140.94099 | 8829 ft | 239 kts | 275° |
| 2026-05-04 09:57 | 35.54201 | 140.92047 | 8815 ft | 240 kts | 265° |
| 2026-05-04 09:57 | 35.53931 | 140.90039 | 8689 ft | 239 kts | 254° |
| 2026-05-04 09:57 | 35.53399 | 140.88111 | 8433 ft | 239 kts | 251° |
| 2026-05-04 09:58 | 35.52802 | 140.86201 | 8189 ft | 240 kts | 250° |
| 2026-05-04 09:58 | 35.52188 | 140.84281 | 7930 ft | 242 kts | 250° |
| 2026-05-04 09:58 | 35.51565 | 140.82350 | 7671 ft | 244 kts | 250° |
| 2026-05-04 10:00 | 35.47192 | 140.68694 | 5983 ft | 248 kts | 258° |
| 2026-05-04 10:00 | 35.47054 | 140.67305 | 5817 ft | 247 kts | 272° |
| 2026-05-04 10:02 | 35.52077 | 140.55492 | 5097 ft | 185 kts | 307° |
| 2026-05-04 10:04 | 35.58831 | 140.50269 | 3538 ft | 169 kts | 321° |
| 2026-05-04 10:04 | 35.59841 | 140.49541 | 3320 ft | 168 kts | 321° |
| 2026-05-04 10:04 | 35.60675 | 140.48940 | 3133 ft | 167 kts | 320° |
| 2026-05-04 10:04 | 35.61690 | 140.48208 | 2922 ft | 161 kts | 320° |
| 2026-05-04 10:05 | 35.62623 | 140.47539 | 2711 ft | 149 kts | 318° |
| 2026-05-04 10:05 | 35.63488 | 140.46914 | 2524 ft | 140 kts | 317° |
| 2026-05-04 10:05 | 35.64310 | 140.46318 | 2338 ft | 136 kts | 316° |
| 2026-05-04 10:05 | 35.65126 | 140.45726 | 2163 ft | 137 kts | 317° |
| 2026-05-04 10:06 | 35.65958 | 140.45125 | 1973 ft | 139 kts | 317° |
| 2026-05-04 10:06 | 35.66792 | 140.44520 | 1786 ft | 139 kts | 318° |
| 2026-05-04 10:06 | 35.67616 | 140.43930 | 1613 ft | 139 kts | 316° |
| 2026-05-04 10:08 | 35.72628 | 140.40294 | 582 ft | 143 kts | 321° |
| 2026-05-04 10:08 | 35.73484 | 140.39690 | 394 ft | 145 kts | 319° |
| 2026-05-04 10:08 | 35.74365 | 140.39054 | 201 ft | 147 kts | 325° |
| 2026-05-04 10:08 | 35.75212 | 140.38450 | 167 ft | 133 kts | 323° |
| 2026-05-04 10:09 | 35.76054 | 140.37806 | 614 ft | 153 kts | 321° |
| 2026-05-04 10:09 | 35.76996 | 140.37094 | 1503 ft | 162 kts | 319° |
| 2026-05-04 10:09 | 35.77702 | 140.36025 | 2299 ft | 160 kts | 285° |
| 2026-05-04 10:09 | 35.77650 | 140.34678 | 2778 ft | 166 kts | 249° |
| 2026-05-04 10:10 | 35.76794 | 140.33572 | 2974 ft | 200 kts | 215° |
| 2026-05-04 10:10 | 35.75311 | 140.33158 | 2983 ft | 239 kts | 183° |
| 2026-05-04 10:10 | 35.73659 | 140.33757 | 2997 ft | 257 kts | 156° |
| 2026-05-04 10:10 | 35.72132 | 140.34944 | 2996 ft | 260 kts | 152° |
| 2026-05-04 10:11 | 35.70672 | 140.36121 | 2995 ft | 247 kts | 152° |
| 2026-05-04 10:11 | 35.69707 | 140.36914 | 3001 ft | 237 kts | 152° |
| 2026-05-04 10:11 | 35.68386 | 140.38020 | 3002 ft | 223 kts | 152° |
| 2026-05-04 10:11 | 35.67110 | 140.39102 | 3034 ft | 222 kts | 152° |
| 2026-05-04 10:12 | 35.65846 | 140.40183 | 3029 ft | 221 kts | 152° |
| 2026-05-04 10:12 | 35.64589 | 140.41261 | 3020 ft | 216 kts | 153° |
| 2026-05-04 10:12 | 35.63421 | 140.42312 | 3075 ft | 201 kts | 152° |
| 2026-05-04 10:12 | 35.62311 | 140.43340 | 3024 ft | 198 kts | 152° |
| 2026-05-04 10:13 | 35.61207 | 140.44352 | 3004 ft | 198 kts | 152° |
| 2026-05-04 10:13 | 35.60104 | 140.45377 | 2991 ft | 198 kts | 152° |
| 2026-05-04 10:13 | 35.59010 | 140.46407 | 2994 ft | 198 kts | 152° |
| 2026-05-04 10:13 | 35.57922 | 140.47436 | 3006 ft | 197 kts | 152° |
| 2026-05-04 10:14 | 35.57009 | 140.48748 | 3006 ft | 213 kts | 122° |
| 2026-05-04 10:14 | 35.56781 | 140.50564 | 2999 ft | 222 kts | 83° |
| 2026-05-04 10:16 | 35.62732 | 140.47566 | 2715 ft | 171 kts | 315° |
| 2026-05-04 10:16 | 35.63739 | 140.46772 | 2483 ft | 171 kts | 317° |
| 2026-05-04 10:16 | 35.64732 | 140.46026 | 2249 ft | 161 kts | 317° |
| 2026-05-04 10:16 | 35.65669 | 140.45342 | 2046 ft | 152 kts | 317° |
| 2026-05-04 10:17 | 35.66542 | 140.44716 | 1853 ft | 141 kts | 316° |
| 2026-05-04 10:17 | 35.67381 | 140.44101 | 1658 ft | 140 kts | 317° |
| 2026-05-04 10:19 | 35.73322 | 140.39812 | 452 ft | 143 kts | 320° |
| 2026-05-04 10:19 | 35.74176 | 140.39188 | 242 ft | 142 kts | 323° |
| 2026-05-04 10:19 | 35.75025 | 140.38578 | 153 ft | 136 kts | 322° |
| 2026-05-04 10:19 | 35.75725 | 140.38068 | 153 ft | 84 kts | 329° |
| 2026-05-04 10:20 | 35.76028 | 140.37849 | 150 ft | 38 kts | 330° |
| 2026-05-04 10:20 | 35.76247 | 140.37736 | 149 ft | 26 kts | 351° |
| 2026-05-04 10:20 | 35.76397 | 140.37727 | 150 ft | 17 kts | 2° |
| 2026-05-04 10:20 | 35.76418 | 140.37823 | 150 ft | 14 kts | 138° |
| 2026-05-04 10:21 | 35.76335 | 140.37884 | 150 ft | 15 kts | 149° |
| 2026-05-04 10:21 | 35.76243 | 140.37950 | 150 ft | 16 kts | 150° |
| 2026-05-04 10:21 | 35.76214 | 140.38051 | 150 ft | 14 kts | 77° |
| 2026-05-04 10:21 | 35.76167 | 140.38134 | 150 ft | 13 kts | 149° |
| 2026-05-04 10:22 | 35.76058 | 140.38286 | 150 ft | 13 kts | 81° |
| 2026-05-04 10:22 | 35.76011 | 140.38361 | 150 ft | 12 kts | 148° |
| 2026-05-04 10:22 | 35.75935 | 140.38416 | 150 ft | 13 kts | 150° |
| 2026-05-04 10:23 | 35.75851 | 140.38476 | 150 ft | 15 kts | 150° |
| 2026-05-04 10:23 | 35.75758 | 140.38542 | 150 ft | 16 kts | 149° |
| 2026-05-04 10:25 | 35.75985 | 140.38804 | 150 ft | 7 kts | 259° |
| 2026-05-04 10:25 | 35.75982 | 140.38785 | 150 ft | 1 kts | 259° |
| 2026-05-04 10:25 | 35.75982 | 140.38784 | 150 ft | 0 kts | 259° |
| 2026-05-04 10:25 | 35.75981 | 140.38782 | 150 ft | 0 kts | 259° |
| 2026-05-04 10:26 | 35.75981 | 140.38781 | 150 ft | 0 kts | 259° |